sensor_id;sensor_type;location;lat;lon;timestamp;temperature;humidity
52849;DHT22;38714;53.180;5.812;2022-11-03T00:00:55;10.80;99.90
52849;DHT22;38714;53.180;5.812;2022-11-03T00:03:21;10.80;99.90
52849;DHT22;38714;53.180;5.812;2022-11-03T00:05:46;10.80;99.90
52849;DHT22;38714;53.180;5.812;2022-11-03T00:08:41;10.80;99.90
52849;DHT22;38714;53.180;5.812;2022-11-03T00:11:11;10.70;99.90
52849;DHT22;38714;53.180;5.812;2022-11-03T00:13:39;10.70;99.90
52849;DHT22;38714;53.180;5.812;2022-11-03T00:16:06;10.70;99.90
52849;DHT22;38714;53.180;5.812;2022-11-03T00:18:32;10.70;99.90
52849;DHT22;38714;53.180;5.812;2022-11-03T00:21:00;10.70;99.90
52849;DHT22;38714;53.180;5.812;2022-11-03T00:23:27;10.60;99.90
52849;DHT22;38714;53.180;5.812;2022-11-03T00:25:53;10.60;99.90
52849;DHT22;38714;53.180;5.812;2022-11-03T00:28:18;10.60;99.90
52849;DHT22;38714;53.180;5.812;2022-11-03T00:30:44;10.60;99.90
52849;DHT22;38714;53.180;5.812;2022-11-03T00:33:09;10.60;99.90
52849;DHT22;38714;53.180;5.812;2022-11-03T00:35:35;10.60;99.90
52849;DHT22;38714;53.180;5.812;2022-11-03T00:38:00;10.50;99.90
52849;DHT22;38714;53.180;5.812;2022-11-03T00:40:26;10.50;99.90
52849;DHT22;38714;53.180;5.812;2022-11-03T00:42:51;10.50;99.90
52849;DHT22;38714;53.180;5.812;2022-11-03T00:45:17;10.50;99.90
52849;DHT22;38714;53.180;5.812;2022-11-03T00:47:42;10.50;99.90
52849;DHT22;38714;53.180;5.812;2022-11-03T00:50:26;10.50;99.90
52849;DHT22;38714;53.180;5.812;2022-11-03T00:52:52;10.50;99.90
52849;DHT22;38714;53.180;5.812;2022-11-03T00:55:18;10.50;99.90
52849;DHT22;38714;53.180;5.812;2022-11-03T00:57:43;10.40;99.90
52849;DHT22;38714;53.180;5.812;2022-11-03T01:00:10;10.40;99.90
52849;DHT22;38714;53.180;5.812;2022-11-03T01:02:36;10.40;99.90
52849;DHT22;38714;53.180;5.812;2022-11-03T01:05:01;10.40;99.90
52849;DHT22;38714;53.180;5.812;2022-11-03T01:07:46;10.40;99.90
52849;DHT22;38714;53.180;5.812;2022-11-03T01:10:11;10.40;99.90
52849;DHT22;38714;53.180;5.812;2022-11-03T01:12:37;10.40;99.90
52849;DHT22;38714;53.180;5.812;2022-11-03T01:15:02;10.40;99.90
52849;DHT22;38714;53.180;5.812;2022-11-03T01:17:28;10.40;99.90
52849;DHT22;38714;53.180;5.812;2022-11-03T01:19:54;10.30;99.90
52849;DHT22;38714;53.180;5.812;2022-11-03T01:22:20;10.30;99.90
52849;DHT22;38714;53.180;5.812;2022-11-03T01:24:47;10.30;99.90
52849;DHT22;38714;53.180;5.812;2022-11-03T01:27:17;10.30;99.90
52849;DHT22;38714;53.180;5.812;2022-11-03T01:29:43;10.40;99.90
52849;DHT22;38714;53.180;5.812;2022-11-03T01:32:09;10.30;99.90
52849;DHT22;38714;53.180;5.812;2022-11-03T01:34:35;10.30;99.90
52849;DHT22;38714;53.180;5.812;2022-11-03T01:37:01;10.30;99.90
52849;DHT22;38714;53.180;5.812;2022-11-03T01:39:26;10.30;99.90
52849;DHT22;38714;53.180;5.812;2022-11-03T01:41:52;10.30;99.90
52849;DHT22;38714;53.180;5.812;2022-11-03T01:49:54;10.30;99.90
52849;DHT22;38714;53.180;5.812;2022-11-03T01:52:25;10.30;99.90
52849;DHT22;38714;53.180;5.812;2022-11-03T01:55:01;10.30;99.90
52849;DHT22;38714;53.180;5.812;2022-11-03T01:57:36;10.30;99.90
52849;DHT22;38714;53.180;5.812;2022-11-03T02:00:03;10.20;99.90
52849;DHT22;38714;53.180;5.812;2022-11-03T02:02:30;10.20;99.90
52849;DHT22;38714;53.180;5.812;2022-11-03T02:04:57;10.20;99.90
52849;DHT22;38714;53.180;5.812;2022-11-03T02:07:47;10.30;99.90
52849;DHT22;38714;53.180;5.812;2022-11-03T02:10:14;10.20;99.90
52849;DHT22;38714;53.180;5.812;2022-11-03T02:12:42;10.20;99.90
52849;DHT22;38714;53.180;5.812;2022-11-03T02:15:10;10.20;99.90
52849;DHT22;38714;53.180;5.812;2022-11-03T02:17:38;10.20;99.90
52849;DHT22;38714;53.180;5.812;2022-11-03T02:20:06;10.20;99.90
52849;DHT22;38714;53.180;5.812;2022-11-03T02:28:05;10.20;99.90
52849;DHT22;38714;53.180;5.812;2022-11-03T02:30:37;10.30;99.90
52849;DHT22;38714;53.180;5.812;2022-11-03T02:33:28;10.20;99.90
52849;DHT22;38714;53.180;5.812;2022-11-03T02:39:05;10.30;99.90
52849;DHT22;38714;53.180;5.812;2022-11-03T02:41:28;10.30;99.90
52849;DHT22;38714;53.180;5.812;2022-11-03T02:43:56;10.30;99.90
52849;DHT22;38714;53.180;5.812;2022-11-03T02:46:23;10.30;99.90
52849;DHT22;38714;53.180;5.812;2022-11-03T02:48:50;10.30;99.90
52849;DHT22;38714;53.180;5.812;2022-11-03T02:51:16;10.30;99.90
52849;DHT22;38714;53.180;5.812;2022-11-03T02:53:48;10.30;99.90
52849;DHT22;38714;53.180;5.812;2022-11-03T02:56:19;10.30;99.90
52849;DHT22;38714;53.180;5.812;2022-11-03T02:59:01;10.30;99.90
52849;DHT22;38714;53.180;5.812;2022-11-03T03:01:33;10.30;99.90
52849;DHT22;38714;53.180;5.812;2022-11-03T03:04:06;10.40;99.90
52849;DHT22;38714;53.180;5.812;2022-11-03T03:06:45;10.30;99.90
52849;DHT22;38714;53.180;5.812;2022-11-03T03:09:20;10.30;99.90
52849;DHT22;38714;53.180;5.812;2022-11-03T03:11:48;10.30;99.90
52849;DHT22;38714;53.180;5.812;2022-11-03T03:14:22;10.40;99.90
52849;DHT22;38714;53.180;5.812;2022-11-03T03:16:59;10.40;99.90
52849;DHT22;38714;53.180;5.812;2022-11-03T03:19:38;10.40;99.90
52849;DHT22;38714;53.180;5.812;2022-11-03T03:22:24;10.40;99.90
52849;DHT22;38714;53.180;5.812;2022-11-03T03:27:40;10.40;99.90
52849;DHT22;38714;53.180;5.812;2022-11-03T03:30:07;10.50;99.90
52849;DHT22;38714;53.180;5.812;2022-11-03T03:32:38;10.50;99.90
52849;DHT22;38714;53.180;5.812;2022-11-03T03:35:07;10.50;99.90
52849;DHT22;38714;53.180;5.812;2022-11-03T03:37:36;10.50;99.90
52849;DHT22;38714;53.180;5.812;2022-11-03T03:40:05;10.50;99.90
52849;DHT22;38714;53.180;5.812;2022-11-03T03:42:35;10.50;99.90
52849;DHT22;38714;53.180;5.812;2022-11-03T03:45:02;10.50;99.90
52849;DHT22;38714;53.180;5.812;2022-11-03T03:47:30;10.50;99.90
52849;DHT22;38714;53.180;5.812;2022-11-03T03:49:57;10.50;99.90
52849;DHT22;38714;53.180;5.812;2022-11-03T03:52:23;10.50;99.90
52849;DHT22;38714;53.180;5.812;2022-11-03T03:54:49;10.50;99.90
52849;DHT22;38714;53.180;5.812;2022-11-03T03:57:20;10.50;99.90
52849;DHT22;38714;53.180;5.812;2022-11-03T03:59:46;10.50;99.90
52849;DHT22;38714;53.180;5.812;2022-11-03T04:02:12;10.50;99.90
52849;DHT22;38714;53.180;5.812;2022-11-03T04:04:38;10.50;99.90
52849;DHT22;38714;53.180;5.812;2022-11-03T04:07:04;10.50;99.90
52849;DHT22;38714;53.180;5.812;2022-11-03T04:09:49;10.50;99.90
52849;DHT22;38714;53.180;5.812;2022-11-03T04:12:14;10.50;99.90
52849;DHT22;38714;53.180;5.812;2022-11-03T04:14:58;10.50;99.90
52849;DHT22;38714;53.180;5.812;2022-11-03T04:17:45;10.60;99.90
52849;DHT22;38714;53.180;5.812;2022-11-03T04:20:30;10.50;99.90
52849;DHT22;38714;53.180;5.812;2022-11-03T04:23:15;10.50;99.90
52849;DHT22;38714;53.180;5.812;2022-11-03T04:25:41;10.40;99.90
52849;DHT22;38714;53.180;5.812;2022-11-03T04:28:13;10.40;99.90
52849;DHT22;38714;53.180;5.812;2022-11-03T04:30:39;10.40;99.90
52849;DHT22;38714;53.180;5.812;2022-11-03T04:35:40;10.30;99.90
52849;DHT22;38714;53.180;5.812;2022-11-03T04:40:56;10.30;99.90
52849;DHT22;38714;53.180;5.812;2022-11-03T04:43:32;10.30;99.90
52849;DHT22;38714;53.180;5.812;2022-11-03T04:45:58;10.20;99.90
52849;DHT22;38714;53.180;5.812;2022-11-03T04:48:26;10.20;99.90
52849;DHT22;38714;53.180;5.812;2022-11-03T04:50:58;10.20;99.90
52849;DHT22;38714;53.180;5.812;2022-11-03T04:53:28;10.20;99.90
52849;DHT22;38714;53.180;5.812;2022-11-03T04:55:54;10.10;99.90
52849;DHT22;38714;53.180;5.812;2022-11-03T04:58:26;10.10;99.90
52849;DHT22;38714;53.180;5.812;2022-11-03T05:00:55;10.10;99.90
52849;DHT22;38714;53.180;5.812;2022-11-03T05:03:34;10.10;99.90
52849;DHT22;38714;53.180;5.812;2022-11-03T05:06:18;10.10;99.90
52849;DHT22;38714;53.180;5.812;2022-11-03T05:08:47;10.00;99.90
52849;DHT22;38714;53.180;5.812;2022-11-03T05:13:44;10.00;99.90
52849;DHT22;38714;53.180;5.812;2022-11-03T05:16:09;10.00;99.90
52849;DHT22;38714;53.180;5.812;2022-11-03T05:18:37;10.00;99.90
52849;DHT22;38714;53.180;5.812;2022-11-03T05:21:15;10.00;99.90
52849;DHT22;38714;53.180;5.812;2022-11-03T05:23:49;10.00;99.90
52849;DHT22;38714;53.180;5.812;2022-11-03T05:26:20;10.00;99.90
52849;DHT22;38714;53.180;5.812;2022-11-03T05:28:56;10.00;99.90
52849;DHT22;38714;53.180;5.812;2022-11-03T05:31:28;10.00;99.90
52849;DHT22;38714;53.180;5.812;2022-11-03T05:36:42;10.00;99.90
52849;DHT22;38714;53.180;5.812;2022-11-03T05:41:45;10.00;99.90
52849;DHT22;38714;53.180;5.812;2022-11-03T05:44:36;10.00;99.90
52849;DHT22;38714;53.180;5.812;2022-11-03T05:47:17;10.00;99.90
52849;DHT22;38714;53.180;5.812;2022-11-03T05:49:43;10.00;99.90
52849;DHT22;38714;53.180;5.812;2022-11-03T05:52:16;10.10;99.90
52849;DHT22;38714;53.180;5.812;2022-11-03T05:54:43;10.10;99.90
52849;DHT22;38714;53.180;5.812;2022-11-03T05:57:13;10.10;99.90
52849;DHT22;38714;53.180;5.812;2022-11-03T05:59:39;10.10;99.90
52849;DHT22;38714;53.180;5.812;2022-11-03T06:02:32;10.10;99.90
52849;DHT22;38714;53.180;5.812;2022-11-03T06:05:00;10.10;99.90
52849;DHT22;38714;53.180;5.812;2022-11-03T06:07:28;10.10;99.90
52849;DHT22;38714;53.180;5.812;2022-11-03T06:09:54;10.10;99.90
52849;DHT22;38714;53.180;5.812;2022-11-03T06:12:21;10.10;99.90
52849;DHT22;38714;53.180;5.812;2022-11-03T06:14:47;10.10;99.90
52849;DHT22;38714;53.180;5.812;2022-11-03T06:17:23;10.10;99.90
52849;DHT22;38714;53.180;5.812;2022-11-03T06:19:53;10.10;99.90
52849;DHT22;38714;53.180;5.812;2022-11-03T06:22:24;10.20;99.90
52849;DHT22;38714;53.180;5.812;2022-11-03T06:25:09;10.10;99.90
52849;DHT22;38714;53.180;5.812;2022-11-03T06:27:37;10.10;99.90
52849;DHT22;38714;53.180;5.812;2022-11-03T06:30:25;10.20;99.90
52849;DHT22;38714;53.180;5.812;2022-11-03T06:32:54;10.10;99.90
52849;DHT22;38714;53.180;5.812;2022-11-03T06:35:22;10.20;99.90
52849;DHT22;38714;53.180;5.812;2022-11-03T06:37:48;10.20;99.90
52849;DHT22;38714;53.180;5.812;2022-11-03T06:42:40;10.10;99.90
52849;DHT22;38714;53.180;5.812;2022-11-03T06:45:21;10.10;99.90
52849;DHT22;38714;53.180;5.812;2022-11-03T06:47:49;10.10;99.90
52849;DHT22;38714;53.180;5.812;2022-11-03T06:52:55;10.10;99.90
52849;DHT22;38714;53.180;5.812;2022-11-03T06:55:25;10.10;99.90
52849;DHT22;38714;53.180;5.812;2022-11-03T06:57:54;10.10;99.90
52849;DHT22;38714;53.180;5.812;2022-11-03T07:00:24;10.10;99.90
52849;DHT22;38714;53.180;5.812;2022-11-03T07:05:29;10.10;99.90
52849;DHT22;38714;53.180;5.812;2022-11-03T07:07:59;10.10;99.90
52849;DHT22;38714;53.180;5.812;2022-11-03T07:10:28;10.10;99.90
52849;DHT22;38714;53.180;5.812;2022-11-03T07:12:57;10.10;99.90
52849;DHT22;38714;53.180;5.812;2022-11-03T07:15:35;10.10;99.90
52849;DHT22;38714;53.180;5.812;2022-11-03T07:18:04;10.10;99.90
52849;DHT22;38714;53.180;5.812;2022-11-03T07:20:38;10.10;99.90
52849;DHT22;38714;53.180;5.812;2022-11-03T07:23:04;10.10;99.90
52849;DHT22;38714;53.180;5.812;2022-11-03T07:25:30;10.20;99.90
52849;DHT22;38714;53.180;5.812;2022-11-03T07:27:56;10.20;99.90
52849;DHT22;38714;53.180;5.812;2022-11-03T07:30:25;10.20;99.90
52849;DHT22;38714;53.180;5.812;2022-11-03T07:32:52;10.30;99.90
52849;DHT22;38714;53.180;5.812;2022-11-03T07:37:56;10.30;99.90
52849;DHT22;38714;53.180;5.812;2022-11-03T07:40:24;10.30;99.90
52849;DHT22;38714;53.180;5.812;2022-11-03T07:42:51;10.30;99.90
52849;DHT22;38714;53.180;5.812;2022-11-03T07:45:39;10.30;99.90
52849;DHT22;38714;53.180;5.812;2022-11-03T07:48:17;10.30;99.90
52849;DHT22;38714;53.180;5.812;2022-11-03T07:50:45;10.30;99.90
52849;DHT22;38714;53.180;5.812;2022-11-03T07:53:15;10.40;99.90
52849;DHT22;38714;53.180;5.812;2022-11-03T07:55:44;10.40;99.90
52849;DHT22;38714;53.180;5.812;2022-11-03T07:58:20;10.40;99.90
52849;DHT22;38714;53.180;5.812;2022-11-03T08:00:46;10.40;99.90
52849;DHT22;38714;53.180;5.812;2022-11-03T08:03:26;10.40;99.90
52849;DHT22;38714;53.180;5.812;2022-11-03T08:05:53;10.40;99.90
52849;DHT22;38714;53.180;5.812;2022-11-03T08:08:19;10.40;99.90
52849;DHT22;38714;53.180;5.812;2022-11-03T08:10:44;10.50;99.90
52849;DHT22;38714;53.180;5.812;2022-11-03T08:13:10;10.50;99.90
52849;DHT22;38714;53.180;5.812;2022-11-03T08:15:36;10.50;99.90
52849;DHT22;38714;53.180;5.812;2022-11-03T08:18:01;10.50;99.90
52849;DHT22;38714;53.180;5.812;2022-11-03T08:20:27;10.60;99.90
52849;DHT22;38714;53.180;5.812;2022-11-03T08:22:52;10.60;99.90
52849;DHT22;38714;53.180;5.812;2022-11-03T08:25:18;10.60;99.90
52849;DHT22;38714;53.180;5.812;2022-11-03T08:27:43;10.60;99.90
52849;DHT22;38714;53.180;5.812;2022-11-03T08:30:09;10.70;99.90
52849;DHT22;38714;53.180;5.812;2022-11-03T08:32:35;10.70;99.90
52849;DHT22;38714;53.180;5.812;2022-11-03T08:35:00;10.70;99.90
52849;DHT22;38714;53.180;5.812;2022-11-03T08:37:26;10.70;99.90
52849;DHT22;38714;53.180;5.812;2022-11-03T08:39:51;10.80;99.90
52849;DHT22;38714;53.180;5.812;2022-11-03T08:42:17;10.80;99.90
52849;DHT22;38714;53.180;5.812;2022-11-03T08:44:43;10.80;99.90
52849;DHT22;38714;53.180;5.812;2022-11-03T08:47:08;10.80;99.90
52849;DHT22;38714;53.180;5.812;2022-11-03T08:49:34;10.80;99.90
52849;DHT22;38714;53.180;5.812;2022-11-03T08:51:59;10.90;99.90
52849;DHT22;38714;53.180;5.812;2022-11-03T08:54:25;10.90;99.90
52849;DHT22;38714;53.180;5.812;2022-11-03T08:56:50;10.90;99.90
52849;DHT22;38714;53.180;5.812;2022-11-03T08:59:16;11.00;99.90
52849;DHT22;38714;53.180;5.812;2022-11-03T09:01:42;11.00;99.90
52849;DHT22;38714;53.180;5.812;2022-11-03T09:04:09;11.10;99.90
52849;DHT22;38714;53.180;5.812;2022-11-03T09:06:34;11.20;99.90
52849;DHT22;38714;53.180;5.812;2022-11-03T09:09:00;11.20;99.90
52849;DHT22;38714;53.180;5.812;2022-11-03T09:11:25;11.20;99.90
52849;DHT22;38714;53.180;5.812;2022-11-03T09:13:51;11.30;99.90
52849;DHT22;38714;53.180;5.812;2022-11-03T09:16:17;11.30;99.90
52849;DHT22;38714;53.180;5.812;2022-11-03T09:18:42;11.30;99.90
52849;DHT22;38714;53.180;5.812;2022-11-03T09:21:08;11.40;99.90
52849;DHT22;38714;53.180;5.812;2022-11-03T09:23:33;11.40;99.90
52849;DHT22;38714;53.180;5.812;2022-11-03T09:25:59;11.40;99.90
52849;DHT22;38714;53.180;5.812;2022-11-03T09:28:25;11.50;99.90
52849;DHT22;38714;53.180;5.812;2022-11-03T09:30:50;11.50;99.90
52849;DHT22;38714;53.180;5.812;2022-11-03T09:33:16;11.50;99.90
52849;DHT22;38714;53.180;5.812;2022-11-03T09:35:41;11.60;99.90
52849;DHT22;38714;53.180;5.812;2022-11-03T09:38:07;11.60;99.90
52849;DHT22;38714;53.180;5.812;2022-11-03T09:40:34;11.70;99.90
52849;DHT22;38714;53.180;5.812;2022-11-03T09:43:00;11.70;99.90
52849;DHT22;38714;53.180;5.812;2022-11-03T09:45:26;11.70;99.90
52849;DHT22;38714;53.180;5.812;2022-11-03T09:47:51;11.80;99.90
52849;DHT22;38714;53.180;5.812;2022-11-03T09:50:18;11.80;99.90
52849;DHT22;38714;53.180;5.812;2022-11-03T09:52:45;11.80;99.90
52849;DHT22;38714;53.180;5.812;2022-11-03T09:55:13;11.80;99.90
52849;DHT22;38714;53.180;5.812;2022-11-03T09:57:40;11.80;99.90
52849;DHT22;38714;53.180;5.812;2022-11-03T10:00:17;11.90;99.90
52849;DHT22;38714;53.180;5.812;2022-11-03T10:02:43;11.90;99.90
52849;DHT22;38714;53.180;5.812;2022-11-03T10:05:13;11.90;99.90
52849;DHT22;38714;53.180;5.812;2022-11-03T10:07:41;11.90;99.90
52849;DHT22;38714;53.180;5.812;2022-11-03T10:10:15;12.00;99.90
52849;DHT22;38714;53.180;5.812;2022-11-03T10:12:41;12.00;99.90
52849;DHT22;38714;53.180;5.812;2022-11-03T10:15:16;12.00;99.90
52849;DHT22;38714;53.180;5.812;2022-11-03T10:17:43;12.00;99.90
52849;DHT22;38714;53.180;5.812;2022-11-03T10:20:14;12.10;99.90
52849;DHT22;38714;53.180;5.812;2022-11-03T10:22:41;12.10;99.90
52849;DHT22;38714;53.180;5.812;2022-11-03T10:25:37;12.10;99.90
52849;DHT22;38714;53.180;5.812;2022-11-03T10:28:19;12.10;99.90
52849;DHT22;38714;53.180;5.812;2022-11-03T10:30:56;12.10;99.90
52849;DHT22;38714;53.180;5.812;2022-11-03T10:33:35;12.10;99.90
52849;DHT22;38714;53.180;5.812;2022-11-03T10:36:03;12.10;99.90
52849;DHT22;38714;53.180;5.812;2022-11-03T10:38:33;12.20;99.90
52849;DHT22;38714;53.180;5.812;2022-11-03T10:41:09;12.20;99.90
52849;DHT22;38714;53.180;5.812;2022-11-03T10:43:37;12.20;99.90
52849;DHT22;38714;53.180;5.812;2022-11-03T10:46:12;12.30;99.90
52849;DHT22;38714;53.180;5.812;2022-11-03T10:48:39;12.20;99.90
52849;DHT22;38714;53.180;5.812;2022-11-03T10:51:06;12.40;99.90
52849;DHT22;38714;53.180;5.812;2022-11-03T10:53:33;12.30;99.90
52849;DHT22;38714;53.180;5.812;2022-11-03T10:55:59;12.30;99.90
52849;DHT22;38714;53.180;5.812;2022-11-03T10:58:24;12.40;99.90
52849;DHT22;38714;53.180;5.812;2022-11-03T11:00:50;12.40;99.90
52849;DHT22;38714;53.180;5.812;2022-11-03T11:03:15;12.50;99.90
52849;DHT22;38714;53.180;5.812;2022-11-03T11:05:45;12.50;99.90
52849;DHT22;38714;53.180;5.812;2022-11-03T11:08:13;12.50;99.90
52849;DHT22;38714;53.180;5.812;2022-11-03T11:10:43;12.60;99.90
52849;DHT22;38714;53.180;5.812;2022-11-03T11:15:59;12.70;99.90
52849;DHT22;38714;53.180;5.812;2022-11-03T11:20:58;12.70;99.90
52849;DHT22;38714;53.180;5.812;2022-11-03T11:31:38;12.80;99.90
52849;DHT22;38714;53.180;5.812;2022-11-03T11:36:42;12.80;99.90
52849;DHT22;38714;53.180;5.812;2022-11-03T11:47:25;12.90;99.90
52849;DHT22;38714;53.180;5.812;2022-11-03T11:55:03;13.10;99.90
52849;DHT22;38714;53.180;5.812;2022-11-03T11:57:32;13.00;99.90
52849;DHT22;38714;53.180;5.812;2022-11-03T11:59:58;13.10;99.90
52849;DHT22;38714;53.180;5.812;2022-11-03T12:02:28;13.10;99.90
52849;DHT22;38714;53.180;5.812;2022-11-03T12:04:58;13.10;99.90
52849;DHT22;38714;53.180;5.812;2022-11-03T12:07:31;13.00;99.90
52849;DHT22;38714;53.180;5.812;2022-11-03T12:10:18;13.10;99.90
52849;DHT22;38714;53.180;5.812;2022-11-03T12:12:45;13.10;99.90
52849;DHT22;38714;53.180;5.812;2022-11-03T12:15:48;13.10;99.90
52849;DHT22;38714;53.180;5.812;2022-11-03T12:18:33;13.10;99.90
52849;DHT22;38714;53.180;5.812;2022-11-03T12:21:01;13.10;99.90
52849;DHT22;38714;53.180;5.812;2022-11-03T12:23:41;13.10;99.90
52849;DHT22;38714;53.180;5.812;2022-11-03T12:28:58;13.10;99.90
52849;DHT22;38714;53.180;5.812;2022-11-03T12:31:24;13.10;99.90
52849;DHT22;38714;53.180;5.812;2022-11-03T12:33:50;13.10;99.90
52849;DHT22;38714;53.180;5.812;2022-11-03T12:36:15;13.20;99.90
52849;DHT22;38714;53.180;5.812;2022-11-03T12:38:41;13.20;99.90
52849;DHT22;38714;53.180;5.812;2022-11-03T12:41:07;13.20;99.90
52849;DHT22;38714;53.180;5.812;2022-11-03T12:43:52;13.20;99.90
52849;DHT22;38714;53.180;5.812;2022-11-03T12:46:19;13.30;99.90
52849;DHT22;38714;53.180;5.812;2022-11-03T12:48:45;13.30;99.90
52849;DHT22;38714;53.180;5.812;2022-11-03T12:51:14;13.30;99.90
52849;DHT22;38714;53.180;5.812;2022-11-03T12:53:40;13.30;99.90
52849;DHT22;38714;53.180;5.812;2022-11-03T12:56:07;13.30;99.90
52849;DHT22;38714;53.180;5.812;2022-11-03T12:58:33;13.30;99.90
52849;DHT22;38714;53.180;5.812;2022-11-03T13:00:59;13.30;99.90
52849;DHT22;38714;53.180;5.812;2022-11-03T13:03:25;13.30;99.90
52849;DHT22;38714;53.180;5.812;2022-11-03T13:05:51;13.30;99.90
52849;DHT22;38714;53.180;5.812;2022-11-03T13:08:16;13.30;99.90
52849;DHT22;38714;53.180;5.812;2022-11-03T13:10:42;13.30;99.90
52849;DHT22;38714;53.180;5.812;2022-11-03T13:13:08;13.40;99.90
52849;DHT22;38714;53.180;5.812;2022-11-03T13:15:33;13.30;99.90
52849;DHT22;38714;53.180;5.812;2022-11-03T13:17:59;13.30;99.90
52849;DHT22;38714;53.180;5.812;2022-11-03T13:20:24;13.30;99.90
52849;DHT22;38714;53.180;5.812;2022-11-03T13:22:50;13.30;99.90
52849;DHT22;38714;53.180;5.812;2022-11-03T13:25:16;13.30;99.90
52849;DHT22;38714;53.180;5.812;2022-11-03T13:27:43;13.30;99.90
52849;DHT22;38714;53.180;5.812;2022-11-03T13:30:09;13.30;99.90
52849;DHT22;38714;53.180;5.812;2022-11-03T13:32:34;13.20;99.90
52849;DHT22;38714;53.180;5.812;2022-11-03T13:35:00;13.20;99.90
52849;DHT22;38714;53.180;5.812;2022-11-03T13:37:26;13.20;99.90
52849;DHT22;38714;53.180;5.812;2022-11-03T13:39:51;13.20;99.90
52849;DHT22;38714;53.180;5.812;2022-11-03T13:42:17;13.20;99.90
52849;DHT22;38714;53.180;5.812;2022-11-03T13:44:42;13.20;99.90
52849;DHT22;38714;53.180;5.812;2022-11-03T13:47:08;13.20;99.90
52849;DHT22;38714;53.180;5.812;2022-11-03T13:49:34;13.30;99.90
52849;DHT22;38714;53.180;5.812;2022-11-03T13:52:00;13.20;99.90
52849;DHT22;38714;53.180;5.812;2022-11-03T13:54:25;13.20;99.90
52849;DHT22;38714;53.180;5.812;2022-11-03T13:56:51;13.20;99.90
52849;DHT22;38714;53.180;5.812;2022-11-03T13:59:16;13.30;99.90
52849;DHT22;38714;53.180;5.812;2022-11-03T14:01:42;13.20;99.90
52849;DHT22;38714;53.180;5.812;2022-11-03T14:04:08;13.20;99.90
52849;DHT22;38714;53.180;5.812;2022-11-03T14:06:34;13.20;99.90
52849;DHT22;38714;53.180;5.812;2022-11-03T14:09:00;13.30;99.90
52849;DHT22;38714;53.180;5.812;2022-11-03T14:11:25;13.30;99.90
52849;DHT22;38714;53.180;5.812;2022-11-03T14:14:10;13.30;99.90
52849;DHT22;38714;53.180;5.812;2022-11-03T14:16:35;13.30;99.90
52849;DHT22;38714;53.180;5.812;2022-11-03T14:19:01;13.40;99.90
52849;DHT22;38714;53.180;5.812;2022-11-03T14:21:29;13.30;99.90
52849;DHT22;38714;53.180;5.812;2022-11-03T14:23:55;13.30;99.90
52849;DHT22;38714;53.180;5.812;2022-11-03T14:26:20;13.30;99.90
52849;DHT22;38714;53.180;5.812;2022-11-03T14:28:46;13.30;99.90
52849;DHT22;38714;53.180;5.812;2022-11-03T14:31:11;13.30;99.90
52849;DHT22;38714;53.180;5.812;2022-11-03T14:33:37;13.30;99.90
52849;DHT22;38714;53.180;5.812;2022-11-03T14:36:02;13.20;99.90
52849;DHT22;38714;53.180;5.812;2022-11-03T14:38:28;13.20;99.90
52849;DHT22;38714;53.180;5.812;2022-11-03T14:40:54;13.20;99.90
52849;DHT22;38714;53.180;5.812;2022-11-03T14:43:38;13.20;99.90
52849;DHT22;38714;53.180;5.812;2022-11-03T14:46:03;13.20;99.90
52849;DHT22;38714;53.180;5.812;2022-11-03T14:48:29;13.20;99.90
52849;DHT22;38714;53.180;5.812;2022-11-03T14:50:54;13.20;99.90
52849;DHT22;38714;53.180;5.812;2022-11-03T14:53:20;13.20;99.90
52849;DHT22;38714;53.180;5.812;2022-11-03T14:55:45;13.20;99.90
52849;DHT22;38714;53.180;5.812;2022-11-03T14:58:11;13.20;99.90
52849;DHT22;38714;53.180;5.812;2022-11-03T15:00:37;13.30;99.90
52849;DHT22;38714;53.180;5.812;2022-11-03T15:03:02;13.20;99.90
52849;DHT22;38714;53.180;5.812;2022-11-03T15:05:28;13.20;99.90
52849;DHT22;38714;53.180;5.812;2022-11-03T15:08:13;13.30;99.90
52849;DHT22;38714;53.180;5.812;2022-11-03T15:10:39;13.20;99.90
52849;DHT22;38714;53.180;5.812;2022-11-03T15:13:05;13.20;99.90
52849;DHT22;38714;53.180;5.812;2022-11-03T15:15:31;13.20;99.90
52849;DHT22;38714;53.180;5.812;2022-11-03T15:18:00;13.30;99.90
52849;DHT22;38714;53.180;5.812;2022-11-03T15:20:26;13.20;99.90
52849;DHT22;38714;53.180;5.812;2022-11-03T15:22:51;13.20;99.90
52849;DHT22;38714;53.180;5.812;2022-11-03T15:25:17;13.20;99.90
52849;DHT22;38714;53.180;5.812;2022-11-03T15:27:43;13.20;99.90
52849;DHT22;38714;53.180;5.812;2022-11-03T15:30:10;13.20;99.90
52849;DHT22;38714;53.180;5.812;2022-11-03T15:32:35;13.20;99.90
52849;DHT22;38714;53.180;5.812;2022-11-03T15:35:01;13.10;99.90
52849;DHT22;38714;53.180;5.812;2022-11-03T15:37:27;13.10;99.90
52849;DHT22;38714;53.180;5.812;2022-11-03T15:39:52;13.10;99.90
52849;DHT22;38714;53.180;5.812;2022-11-03T15:42:18;13.10;99.90
52849;DHT22;38714;53.180;5.812;2022-11-03T15:44:44;13.00;99.90
52849;DHT22;38714;53.180;5.812;2022-11-03T15:47:09;13.00;99.90
52849;DHT22;38714;53.180;5.812;2022-11-03T15:49:35;13.00;99.90
52849;DHT22;38714;53.180;5.812;2022-11-03T15:52:00;13.00;99.90
52849;DHT22;38714;53.180;5.812;2022-11-03T15:54:26;13.00;99.90
52849;DHT22;38714;53.180;5.812;2022-11-03T15:56:52;13.00;99.90
52849;DHT22;38714;53.180;5.812;2022-11-03T15:59:17;13.00;99.90
52849;DHT22;38714;53.180;5.812;2022-11-03T16:01:43;12.90;99.90
52849;DHT22;38714;53.180;5.812;2022-11-03T16:04:09;12.90;99.90
52849;DHT22;38714;53.180;5.812;2022-11-03T16:06:34;12.90;99.90
52849;DHT22;38714;53.180;5.812;2022-11-03T16:09:00;12.90;99.90
52849;DHT22;38714;53.180;5.812;2022-11-03T16:11:26;12.90;99.90
52849;DHT22;38714;53.180;5.812;2022-11-03T16:13:51;12.90;99.90
52849;DHT22;38714;53.180;5.812;2022-11-03T16:16:17;12.90;99.90
52849;DHT22;38714;53.180;5.812;2022-11-03T16:18:42;12.90;99.90
52849;DHT22;38714;53.180;5.812;2022-11-03T16:21:08;12.90;99.90
52849;DHT22;38714;53.180;5.812;2022-11-03T16:23:34;12.80;99.90
52849;DHT22;38714;53.180;5.812;2022-11-03T16:26:02;12.80;99.90
52849;DHT22;38714;53.180;5.812;2022-11-03T16:28:29;12.80;99.90
52849;DHT22;38714;53.180;5.812;2022-11-03T16:30:55;12.80;99.90
52849;DHT22;38714;53.180;5.812;2022-11-03T16:33:21;12.80;99.90
52849;DHT22;38714;53.180;5.812;2022-11-03T16:35:46;12.80;99.90
52849;DHT22;38714;53.180;5.812;2022-11-03T16:38:12;12.80;99.90
52849;DHT22;38714;53.180;5.812;2022-11-03T16:40:40;12.80;99.90
52849;DHT22;38714;53.180;5.812;2022-11-03T16:43:05;12.70;99.90
52849;DHT22;38714;53.180;5.812;2022-11-03T16:45:31;12.80;99.90
52849;DHT22;38714;53.180;5.812;2022-11-03T16:47:56;12.70;99.90
52849;DHT22;38714;53.180;5.812;2022-11-03T16:50:22;12.70;99.90
52849;DHT22;38714;53.180;5.812;2022-11-03T16:52:48;12.70;99.90